Time;durP1;ratioP1;P1;durP2;ratioP2;P2;SDS_P1;SDS_P2;PMS_P1;PMS_P2;Temp;Humidity;BMP_temperature;BMP_pressure;BME280_temperature;BME280_humidity;BME280_pressure;Samples;Min_cycle;Max_cycle;Signal;HPM_P1;HPM_P2
2022/01/31 00:01:05;;;;;;;21.15;4.57;;;;;;;;;;5069172;28;20074;-77
2022/01/31 00:03:34;;;;;;;20.23;5.22;;;;;;;;;;5069768;28;20471;-77
2022/01/31 00:06:00;;;;;;;20.52;5.05;;;;;;;;;;5051219;28;20040;-77
2022/01/31 00:08:26;;;;;;;19.17;5.25;;;;;;;;;;5051475;28;20044;-77
2022/01/31 00:10:52;;;;;;;18.38;5.28;;;;;;;;;;5051292;28;20473;-77
2022/01/31 00:13:23;;;;;;;19.23;5.47;;;;;;;;;;5068496;28;20036;-77
2022/01/31 00:15:55;;;;;;;16.33;5.05;;;;;;;;;;5067852;28;20048;-77
2022/01/31 00:18:21;;;;;;;16.83;6.03;;;;;;;;;;5068139;28;20124;-77
2022/01/31 00:20:47;;;;;;;20.95;6.45;;;;;;;;;;5067699;28;20153;-77
2022/01/31 00:23:14;;;;;;;19.02;7.35;;;;;;;;;;5068021;28;20048;-77
2022/01/31 00:25:40;;;;;;;21.48;6.63;;;;;;;;;;5067506;28;20121;-77
2022/01/31 00:28:06;;;;;;;21.85;6.35;;;;;;;;;;5067652;28;20044;-77
2022/01/31 00:30:32;;;;;;;23.05;7.00;;;;;;;;;;5068194;28;20049;-77
2022/01/31 00:32:58;;;;;;;22.15;6.22;;;;;;;;;;5067625;28;20040;-77
2022/01/31 00:35:26;;;;;;;23.52;7.07;;;;;;;;;;5068080;28;20424;-77
2022/01/31 00:37:52;;;;;;;23.92;7.25;;;;;;;;;;5051103;28;20197;-77
2022/01/31 00:40:19;;;;;;;27.73;7.50;;;;;;;;;;5067877;28;20127;-77
2022/01/31 00:42:45;;;;;;;23.38;7.10;;;;;;;;;;5067775;28;20491;-77
2022/01/31 00:47:41;;;;;;;19.52;7.20;;;;;;;;;;5067849;28;20045;-77
2022/01/31 00:50:09;;;;;;;22.00;7.43;;;;;;;;;;5068504;28;20046;-77
2022/01/31 00:52:36;;;;;;;33.33;8.73;;;;;;;;;;5067525;28;20079;-77
2022/01/31 00:55:03;;;;;;;23.35;8.68;;;;;;;;;;5067856;28;20037;-77
2022/01/31 00:57:29;;;;;;;25.25;9.13;;;;;;;;;;5067959;28;20124;-77
2022/01/31 00:59:55;;;;;;;29.75;9.77;;;;;;;;;;5067510;28;20407;-77
2022/01/31 01:02:22;;;;;;;28.17;9.95;;;;;;;;;;5068067;28;20123;-76
2022/01/31 01:04:48;;;;;;;26.27;9.85;;;;;;;;;;5067464;28;20052;-76
2022/01/31 01:07:15;;;;;;;31.05;10.32;;;;;;;;;;5067554;28;20458;-77
2022/01/31 01:09:44;;;;;;;27.73;9.85;;;;;;;;;;5067381;28;20063;-77
2022/01/31 01:12:10;;;;;;;31.33;10.52;;;;;;;;;;5068263;28;20453;-77
2022/01/31 01:14:36;;;;;;;33.38;11.40;;;;;;;;;;5067770;28;20037;-77
2022/01/31 01:17:02;;;;;;;27.00;11.32;;;;;;;;;;5067894;28;20064;-76
2022/01/31 01:19:28;;;;;;;28.52;11.55;;;;;;;;;;5068895;28;20488;-77
2022/01/31 01:21:54;;;;;;;29.60;11.63;;;;;;;;;;5054193;28;20500;-77
2022/01/31 01:24:20;;;;;;;28.08;11.25;;;;;;;;;;5055472;28;20467;-77
2022/01/31 01:26:47;;;;;;;29.30;11.23;;;;;;;;;;5071288;28;20488;-77
2022/01/31 01:29:14;;;;;;;34.08;12.98;;;;;;;;;;5071269;28;20063;-77
2022/01/31 01:31:40;;;;;;;29.60;13.05;;;;;;;;;;5070872;28;20122;-77
2022/01/31 01:34:07;;;;;;;27.02;12.40;;;;;;;;;;5071553;28;20526;-78
2022/01/31 01:36:34;;;;;;;29.45;12.35;;;;;;;;;;5071538;28;20056;-78
2022/01/31 01:39:00;;;;;;;27.45;11.88;;;;;;;;;;5054264;28;20036;-77
2022/01/31 01:41:27;;;;;;;33.70;12.77;;;;;;;;;;5071311;28;20040;-78
2022/01/31 01:43:53;;;;;;;34.30;13.65;;;;;;;;;;5054366;28;20037;-77
2022/01/31 01:46:19;;;;;;;30.05;12.27;;;;;;;;;;5071269;28;20557;-78
2022/01/31 01:48:45;;;;;;;28.08;12.63;;;;;;;;;;5070473;28;20036;-77
2022/01/31 01:51:11;;;;;;;23.45;10.77;;;;;;;;;;5071012;28;20059;-77
2022/01/31 01:53:37;;;;;;;27.52;11.60;;;;;;;;;;5071009;28;20032;-77
2022/01/31 01:56:04;;;;;;;25.23;11.07;;;;;;;;;;5071078;28;20359;-77
2022/01/31 01:58:39;;;;;;;23.65;11.57;;;;;;;;;;5071067;28;20407;-77
2022/01/31 02:01:05;;;;;;;31.67;9.87;;;;;;;;;;5070701;28;20076;-77
2022/01/31 02:03:33;;;;;;;22.80;10.63;;;;;;;;;;5070830;28;20045;-77
2022/01/31 02:05:59;;;;;;;25.27;9.65;;;;;;;;;;5053763;28;20044;-78
2022/01/31 02:08:27;;;;;;;18.73;9.63;;;;;;;;;;5070773;28;20044;-77
2022/01/31 02:10:53;;;;;;;19.80;9.32;;;;;;;;;;5070647;28;20170;-77
2022/01/31 02:13:19;;;;;;;20.33;8.57;;;;;;;;;;5070982;28;20116;-77
2022/01/31 02:15:47;;;;;;;21.23;8.82;;;;;;;;;;5070010;28;20082;-77
2022/01/31 02:18:14;;;;;;;17.90;9.02;;;;;;;;;;5070431;28;20364;-77
2022/01/31 02:20:41;;;;;;;19.40;8.48;;;;;;;;;;5071477;28;20097;-77
2022/01/31 02:23:08;;;;;;;23.92;9.52;;;;;;;;;;5070511;28;20099;-78
2022/01/31 02:25:56;;;;;;;14.25;7.30;;;;;;;;;;5070701;28;20075;-78
2022/01/31 02:28:23;;;;;;;18.52;7.60;;;;;;;;;;5053179;28;20063;-77
2022/01/31 02:30:49;;;;;;;15.50;7.03;;;;;;;;;;5070378;28;20040;-78
2022/01/31 02:33:16;;;;;;;13.13;7.03;;;;;;;;;;5070903;28;20051;-77
2022/01/31 02:35:42;;;;;;;15.65;7.45;;;;;;;;;;5070196;28;20079;-78
2022/01/31 02:38:08;;;;;;;14.40;7.25;;;;;;;;;;5070423;28;20040;-78
2022/01/31 02:40:34;;;;;;;16.92;6.70;;;;;;;;;;5070259;28;20052;-78
2022/01/31 02:43:01;;;;;;;14.50;6.97;;;;;;;;;;5069633;28;20044;-78
2022/01/31 02:45:27;;;;;;;16.17;6.85;;;;;;;;;;5053766;28;20411;-77
2022/01/31 02:47:56;;;;;;;15.00;6.50;;;;;;;;;;5069647;28;20040;-78
2022/01/31 02:50:22;;;;;;;18.30;7.00;;;;;;;;;;5054274;28;20049;-77
2022/01/31 02:52:49;;;;;;;18.23;6.88;;;;;;;;;;5069786;28;20036;-77
2022/01/31 02:55:16;;;;;;;21.75;7.18;;;;;;;;;;5053788;28;20044;-78
2022/01/31 02:57:42;;;;;;;18.42;6.72;;;;;;;;;;5070525;28;20082;-77
2022/01/31 03:00:09;;;;;;;23.77;6.78;;;;;;;;;;5069794;28;20051;-78
2022/01/31 03:02:35;;;;;;;22.98;7.03;;;;;;;;;;5063329;28;20045;-78
2022/01/31 03:05:01;;;;;;;25.80;6.50;;;;;;;;;;5068064;28;20056;-78
2022/01/31 03:07:27;;;;;;;25.85;6.40;;;;;;;;;;5068713;28;20036;-77
2022/01/31 03:09:53;;;;;;;26.63;6.00;;;;;;;;;;5069206;28;20036;-78
2022/01/31 03:12:19;;;;;;;34.13;6.45;;;;;;;;;;5069715;28;20202;-78
2022/01/31 03:14:45;;;;;;;29.23;5.10;;;;;;;;;;5068871;28;20051;-77
2022/01/31 03:17:12;;;;;;;23.40;4.43;;;;;;;;;;5068943;28;20046;-78
2022/01/31 03:19:40;;;;;;;29.05;4.53;;;;;;;;;;5069727;28;20478;-78
2022/01/31 03:22:06;;;;;;;21.00;3.97;;;;;;;;;;5069595;28;20052;-77
2022/01/31 03:24:33;;;;;;;18.83;3.10;;;;;;;;;;5052812;28;20037;-78
2022/01/31 03:26:59;;;;;;;28.85;4.43;;;;;;;;;;5052333;28;20416;-77
2022/01/31 03:29:25;;;;;;;22.25;3.80;;;;;;;;;;5068942;28;20048;-77
2022/01/31 03:31:52;;;;;;;22.75;3.67;;;;;;;;;;5069235;28;20404;-77
2022/01/31 03:34:18;;;;;;;13.13;2.60;;;;;;;;;;5069366;28;20126;-77
2022/01/31 03:36:44;;;;;;;22.02;3.40;;;;;;;;;;5069095;28;20036;-77
2022/01/31 03:39:10;;;;;;;22.50;3.80;;;;;;;;;;5068798;28;20048;-77
2022/01/31 03:41:36;;;;;;;19.23;3.50;;;;;;;;;;5068522;28;20109;-77
2022/01/31 03:44:02;;;;;;;18.83;3.30;;;;;;;;;;5050673;28;20119;-77
2022/01/31 03:46:30;;;;;;;23.10;3.63;;;;;;;;;;5052386;28;20044;-77
2022/01/31 03:48:57;;;;;;;21.33;3.50;;;;;;;;;;5068899;28;20052;-77
2022/01/31 03:51:23;;;;;;;16.73;2.70;;;;;;;;;;5069092;28;20498;-77
2022/01/31 03:53:49;;;;;;;14.05;3.42;;;;;;;;;;5068702;28;20109;-77
2022/01/31 03:56:15;;;;;;;23.08;3.53;;;;;;;;;;5069396;28;20048;-77
2022/01/31 03:58:41;;;;;;;22.08;3.95;;;;;;;;;;5067682;28;20048;-77
2022/01/31 04:01:07;;;;;;;22.33;3.08;;;;;;;;;;5056270;28;20045;-77
2022/01/31 04:03:34;;;;;;;21.38;2.75;;;;;;;;;;5048654;28;20052;-77
2022/01/31 04:06:00;;;;;;;20.13;2.67;;;;;;;;;;5048153;28;20072;-77
2022/01/31 04:08:27;;;;;;;17.30;3.38;;;;;;;;;;5048411;28;20037;-77
2022/01/31 04:10:53;;;;;;;17.55;2.63;;;;;;;;;;5047855;28;20036;-77
2022/01/31 04:13:19;;;;;;;16.13;2.53;;;;;;;;;;5082115;28;20043;-77
2022/01/31 04:15:45;;;;;;;17.67;2.47;;;;;;;;;;5048018;28;20047;-77
2022/01/31 04:18:11;;;;;;;17.85;2.03;;;;;;;;;;5064945;28;20044;-77
2022/01/31 04:20:37;;;;;;;21.88;2.55;;;;;;;;;;5047851;28;20045;-77
2022/01/31 04:23:11;;;;;;;20.67;3.08;;;;;;;;;;5048838;28;20033;-77
2022/01/31 04:30:50;;;;;;;17.75;2.63;;;;;;;;;;5080675;28;20041;-77
2022/01/31 04:33:16;;;;;;;19.58;2.50;;;;;;;;;;5047277;28;20048;-77
2022/01/31 04:35:42;;;;;;;18.40;2.75;;;;;;;;;;5047689;28;20080;-77
2022/01/31 04:38:09;;;;;;;16.05;2.50;;;;;;;;;;5048341;28;20048;-76
2022/01/31 04:40:35;;;;;;;18.40;2.38;;;;;;;;;;5064459;28;20047;-76
2022/01/31 04:43:01;;;;;;;12.98;2.20;;;;;;;;;;5064279;28;20052;-77
2022/01/31 04:45:27;;;;;;;22.75;3.10;;;;;;;;;;5047850;28;20048;-76
2022/01/31 04:47:53;;;;;;;20.27;2.33;;;;;;;;;;5047582;28;20041;-76
2022/01/31 04:50:19;;;;;;;24.02;3.63;;;;;;;;;;5048085;28;20525;-76
2022/01/31 04:52:45;;;;;;;20.55;2.75;;;;;;;;;;5066472;28;20403;-76
2022/01/31 04:55:12;;;;;;;18.17;2.20;;;;;;;;;;5050904;28;20087;-76
2022/01/31 04:57:38;;;;;;;17.52;2.47;;;;;;;;;;5067740;28;20056;-76
2022/01/31 05:00:05;;;;;;;28.48;4.05;;;;;;;;;;5051023;28;20427;-77
2022/01/31 05:02:31;;;;;;;20.83;2.67;;;;;;;;;;5061538;28;20036;-76
2022/01/31 05:04:57;;;;;;;13.15;2.03;;;;;;;;;;5066606;28;20090;-77
2022/01/31 05:07:23;;;;;;;10.20;1.45;;;;;;;;;;5066439;28;20048;-77
2022/01/31 05:09:49;;;;;;;5.85;0.95;;;;;;;;;;5069047;28;20064;-77
2022/01/31 05:12:15;;;;;;;5.80;1.10;;;;;;;;;;5067873;28;20040;-77
2022/01/31 05:14:42;;;;;;;10.10;0.90;;;;;;;;;;5067368;28;20073;-77
2022/01/31 05:17:08;;;;;;;6.63;1.27;;;;;;;;;;5051297;28;20040;-78
2022/01/31 05:19:34;;;;;;;8.02;1.25;;;;;;;;;;5050992;28;20497;-77
2022/01/31 05:22:00;;;;;;;6.10;1.00;;;;;;;;;;5050505;28;20068;-77
2022/01/31 05:24:26;;;;;;;8.45;1.02;;;;;;;;;;5067841;28;20055;-77
2022/01/31 05:26:53;;;;;;;12.02;1.40;;;;;;;;;;5067146;28;20036;-77
2022/01/31 05:29:20;;;;;;;11.77;1.30;;;;;;;;;;5067742;28;20523;-77
2022/01/31 05:31:46;;;;;;;11.82;2.60;;;;;;;;;;5067443;28;20568;-77
2022/01/31 05:34:12;;;;;;;11.82;1.38;;;;;;;;;;5067672;28;20512;-77
2022/01/31 05:36:42;;;;;;;16.15;1.70;;;;;;;;;;5067690;28;20456;-77
2022/01/31 05:39:08;;;;;;;14.70;1.55;;;;;;;;;;5068811;28;20113;-77
2022/01/31 05:41:34;;;;;;;9.25;1.45;;;;;;;;;;5067363;28;20044;-77
2022/01/31 05:44:01;;;;;;;19.95;1.60;;;;;;;;;;5068421;28;20094;-77
2022/01/31 05:46:27;;;;;;;14.68;2.13;;;;;;;;;;5068616;28;20049;-77
2022/01/31 05:48:53;;;;;;;16.35;2.17;;;;;;;;;;5067115;28;20048;-77
2022/01/31 05:51:20;;;;;;;15.15;2.78;;;;;;;;;;5067106;28;20080;-77
2022/01/31 05:53:47;;;;;;;13.52;1.85;;;;;;;;;;5050782;28;20079;-77
2022/01/31 05:56:13;;;;;;;16.90;2.40;;;;;;;;;;5067546;28;20051;-76
2022/01/31 05:58:39;;;;;;;19.30;2.00;;;;;;;;;;5066824;28;20047;-76
2022/01/31 06:01:06;;;;;;;14.50;2.40;;;;;;;;;;5049918;28;20611;-77
2022/01/31 06:03:32;;;;;;;14.52;1.83;;;;;;;;;;5067177;28;20037;-77
2022/01/31 06:05:58;;;;;;;15.85;1.90;;;;;;;;;;5033497;28;20055;-77
2022/01/31 06:08:24;;;;;;;15.25;2.20;;;;;;;;;;5069601;28;20476;-77
2022/01/31 06:10:50;;;;;;;18.52;2.17;;;;;;;;;;5070434;28;20048;-77
2022/01/31 06:13:22;;;;;;;23.55;2.60;;;;;;;;;;5070944;28;20036;-77
2022/01/31 06:15:48;;;;;;;12.88;1.73;;;;;;;;;;5070347;28;20186;-78
2022/01/31 06:18:14;;;;;;;17.58;1.85;;;;;;;;;;5070598;28;20040;-77
2022/01/31 06:20:41;;;;;;;14.85;2.08;;;;;;;;;;5070878;28;20389;-77
2022/01/31 06:23:07;;;;;;;14.13;1.75;;;;;;;;;;5071629;28;20444;-77
2022/01/31 06:25:34;;;;;;;12.30;1.77;;;;;;;;;;5070589;28;20049;-77
2022/01/31 06:28:00;;;;;;;13.20;1.60;;;;;;;;;;5070296;28;20056;-77
2022/01/31 06:30:27;;;;;;;15.35;1.75;;;;;;;;;;5070254;28;20052;-76
2022/01/31 06:32:56;;;;;;;9.98;1.60;;;;;;;;;;5069721;28;20040;-76
2022/01/31 06:35:22;;;;;;;9.85;1.73;;;;;;;;;;5070559;28;20049;-77
2022/01/31 06:37:49;;;;;;;13.52;2.00;;;;;;;;;;5070143;28;20044;-78
2022/01/31 06:40:15;;;;;;;16.25;1.98;;;;;;;;;;5070252;28;20053;-77
2022/01/31 06:42:41;;;;;;;14.48;2.72;;;;;;;;;;5053492;28;20514;-77
2022/01/31 06:45:07;;;;;;;13.95;3.00;;;;;;;;;;5070116;28;20047;-77
2022/01/31 06:47:33;;;;;;;15.30;2.08;;;;;;;;;;5036765;28;20109;-77
2022/01/31 06:49:59;;;;;;;12.20;2.10;;;;;;;;;;5069731;28;20032;-77
2022/01/31 06:52:31;;;;;;;21.38;2.22;;;;;;;;;;5070000;28;20419;-77
2022/01/31 06:55:01;;;;;;;15.50;2.10;;;;;;;;;;5053446;28;20451;-77
2022/01/31 06:57:33;;;;;;;15.15;2.00;;;;;;;;;;5037481;28;20384;-77
2022/01/31 06:59:59;;;;;;;19.00;2.50;;;;;;;;;;5069541;28;20036;-77
2022/01/31 07:02:25;;;;;;;17.58;2.05;;;;;;;;;;5069586;28;20041;-77
2022/01/31 07:04:51;;;;;;;15.68;2.05;;;;;;;;;;5069523;28;20033;-78
2022/01/31 07:07:17;;;;;;;16.42;1.95;;;;;;;;;;5069808;28;20573;-77
2022/01/31 07:09:43;;;;;;;20.42;2.85;;;;;;;;;;5069436;28;20036;-78
2022/01/31 07:12:12;;;;;;;17.95;2.65;;;;;;;;;;5069837;28;20119;-78
2022/01/31 07:14:38;;;;;;;19.88;2.35;;;;;;;;;;5069653;28;20059;-77
2022/01/31 07:17:06;;;;;;;14.60;2.30;;;;;;;;;;5069514;28;20511;-78
2022/01/31 07:19:35;;;;;;;23.38;2.85;;;;;;;;;;5052925;28;20131;-77
2022/01/31 07:22:03;;;;;;;25.75;2.65;;;;;;;;;;5052315;28;20136;-77
2022/01/31 07:25:31;;;;;;;26.67;2.70;;;;;;;;;;5069555;28;20044;-77
2022/01/31 07:27:16;;;;;;;21.65;2.67;;;;;;;;;;5061947;28;20052;-77
2022/01/31 07:29:44;;;;;;;21.15;2.92;;;;;;;;;;5051410;28;20084;-77
2022/01/31 07:32:10;;;;;;;22.10;2.58;;;;;;;;;;5052858;28;20044;-77
2022/01/31 07:34:38;;;;;;;25.15;2.53;;;;;;;;;;5069111;28;20076;-77
2022/01/31 07:37:04;;;;;;;20.00;2.55;;;;;;;;;;5068585;28;20044;-77
2022/01/31 07:39:30;;;;;;;16.23;1.83;;;;;;;;;;5052333;28;20071;-77
2022/01/31 07:41:56;;;;;;;17.67;2.20;;;;;;;;;;5068277;28;20040;-77
2022/01/31 07:44:22;;;;;;;20.33;2.65;;;;;;;;;;5069878;28;20093;-77
2022/01/31 07:46:49;;;;;;;19.40;2.40;;;;;;;;;;5035338;28;20051;-77
2022/01/31 07:49:15;;;;;;;21.60;2.63;;;;;;;;;;5068845;28;20037;-77
2022/01/31 07:51:42;;;;;;;19.67;2.22;;;;;;;;;;5068649;28;20044;-77
2022/01/31 07:54:08;;;;;;;23.25;3.08;;;;;;;;;;5068315;28;20831;-77
2022/01/31 07:56:35;;;;;;;18.40;2.33;;;;;;;;;;5068675;28;20044;-77
2022/01/31 07:59:01;;;;;;;22.35;3.40;;;;;;;;;;5068588;28;20400;-77
2022/01/31 08:01:27;;;;;;;20.10;2.55;;;;;;;;;;5068766;28;20134;-76
2022/01/31 08:03:54;;;;;;;24.40;2.80;;;;;;;;;;5052132;28;20044;-76
2022/01/31 08:06:20;;;;;;;25.88;3.30;;;;;;;;;;5068583;28;20131;-77
2022/01/31 08:08:46;;;;;;;17.83;3.08;;;;;;;;;;5068189;28;20499;-77
2022/01/31 08:11:14;;;;;;;34.00;3.42;;;;;;;;;;5068260;28;20040;-77
2022/01/31 08:13:40;;;;;;;23.48;2.72;;;;;;;;;;5068513;28;20102;-77
2022/01/31 08:18:36;;;;;;;23.75;3.30;;;;;;;;;;5068683;28;20085;-77
2022/01/31 08:21:03;;;;;;;27.48;3.08;;;;;;;;;;5067795;28;20048;-77
2022/01/31 08:23:30;;;;;;;22.58;2.42;;;;;;;;;;5051922;28;20044;-77
2022/01/31 08:25:57;;;;;;;26.88;3.03;;;;;;;;;;5069140;28;20492;-78
2022/01/31 08:28:33;;;;;;;13.23;2.03;;;;;;;;;;5068511;28;20250;-77
2022/01/31 08:31:06;;;;;;;15.55;2.00;;;;;;;;;;5067091;28;20410;-77
2022/01/31 08:33:36;;;;;;;15.55;1.70;;;;;;;;;;5069484;28;20045;-77
2022/01/31 08:36:04;;;;;;;17.48;2.13;;;;;;;;;;5067829;28;20052;-76
2022/01/31 08:38:30;;;;;;;15.10;2.35;;;;;;;;;;5051465;28;20048;-77
2022/01/31 08:40:56;;;;;;;15.40;1.83;;;;;;;;;;5067568;28;20051;-77
2022/01/31 08:43:22;;;;;;;11.80;1.80;;;;;;;;;;5069256;28;20044;-76
2022/01/31 08:45:50;;;;;;;15.05;2.00;;;;;;;;;;5050719;28;20052;-77
2022/01/31 08:48:17;;;;;;;11.18;1.60;;;;;;;;;;5051578;28;20519;-77
2022/01/31 08:50:43;;;;;;;10.63;1.38;;;;;;;;;;5067707;28;20043;-78
2022/01/31 08:53:09;;;;;;;12.88;1.50;;;;;;;;;;5068361;28;20067;-77
2022/01/31 08:55:36;;;;;;;11.10;1.35;;;;;;;;;;5067757;28;20055;-77
2022/01/31 08:58:05;;;;;;;11.90;1.50;;;;;;;;;;5067677;28;20048;-77
2022/01/31 09:00:35;;;;;;;9.50;1.33;;;;;;;;;;5068135;28;20048;-77
2022/01/31 09:05:38;;;;;;;16.92;2.00;;;;;;;;;;5067803;28;20044;-77
2022/01/31 09:08:04;;;;;;;13.70;2.20;;;;;;;;;;5050733;28;20082;-77
2022/01/31 09:10:30;;;;;;;16.33;1.88;;;;;;;;;;5034045;28;20033;-77
2022/01/31 09:12:56;;;;;;;12.35;1.70;;;;;;;;;;5067327;28;20067;-77
2022/01/31 09:15:22;;;;;;;8.65;1.10;;;;;;;;;;5067664;28;20563;-77
2022/01/31 09:17:49;;;;;;;9.98;1.65;;;;;;;;;;5067253;28;20044;-77
2022/01/31 09:20:16;;;;;;;12.00;1.85;;;;;;;;;;5067621;28;20118;-77
2022/01/31 09:22:43;;;;;;;11.88;1.63;;;;;;;;;;5067805;28;20443;-77
2022/01/31 09:25:10;;;;;;;10.82;1.80;;;;;;;;;;5067584;28;20049;-77
2022/01/31 09:27:36;;;;;;;8.25;1.33;;;;;;;;;;5068338;28;20136;-77
2022/01/31 09:30:07;;;;;;;7.32;1.50;;;;;;;;;;5066861;28;20055;-76
2022/01/31 09:32:33;;;;;;;8.15;1.25;;;;;;;;;;5067795;28;20049;-77
2022/01/31 09:34:59;;;;;;;7.75;1.20;;;;;;;;;;5050465;28;20116;-77
2022/01/31 09:37:25;;;;;;;9.15;1.77;;;;;;;;;;5050688;28;20048;-77
2022/01/31 09:39:51;;;;;;;9.43;1.85;;;;;;;;;;5067592;28;20519;-77
2022/01/31 09:42:29;;;;;;;11.13;1.60;;;;;;;;;;5069617;28;20045;-77
2022/01/31 09:45:11;;;;;;;11.00;1.48;;;;;;;;;;5071208;28;20569;-76
2022/01/31 09:50:22;;;;;;;11.00;1.25;;;;;;;;;;5072120;28;20481;-77
2022/01/31 09:52:48;;;;;;;9.80;1.70;;;;;;;;;;5070885;28;20033;-76
2022/01/31 09:55:14;;;;;;;11.80;1.45;;;;;;;;;;5071136;28;20115;-76
2022/01/31 09:57:40;;;;;;;12.43;1.52;;;;;;;;;;5070913;28;20040;-77
2022/01/31 10:00:07;;;;;;;8.27;1.52;;;;;;;;;;5054323;28;20545;-77
2022/01/31 10:02:33;;;;;;;12.48;1.70;;;;;;;;;;5071102;28;20047;-77
2022/01/31 10:04:59;;;;;;;12.20;1.70;;;;;;;;;;5054006;28;20044;-76
2022/01/31 10:07:42;;;;;;;9.95;1.60;;;;;;;;;;5071887;28;20048;-76
2022/01/31 10:10:21;;;;;;;12.82;2.13;;;;;;;;;;5070387;28;20040;-76
2022/01/31 10:18:10;;;;;;;12.35;1.50;;;;;;;;;;5070163;28;20044;-76
2022/01/31 10:20:36;;;;;;;8.85;1.33;;;;;;;;;;5070516;28;20041;-76
2022/01/31 10:23:09;;;;;;;12.35;2.58;;;;;;;;;;5070250;28;20036;-76
2022/01/31 10:25:36;;;;;;;11.02;1.65;;;;;;;;;;5070704;28;20558;-76
2022/01/31 10:28:02;;;;;;;11.38;1.70;;;;;;;;;;5053146;28;20040;-76
2022/01/31 10:30:29;;;;;;;6.40;1.08;;;;;;;;;;5070379;28;20056;-76
2022/01/31 10:32:56;;;;;;;7.03;1.40;;;;;;;;;;5070063;28;20048;-76
2022/01/31 10:35:31;;;;;;;10.93;1.08;;;;;;;;;;5054142;28;20029;-76
2022/01/31 10:38:01;;;;;;;9.63;1.48;;;;;;;;;;5070983;28;20040;-76
2022/01/31 10:53:57;;;;;;;4.47;0.70;;;;;;;;;;5069035;28;20053;-77
2022/01/31 10:56:23;;;;;;;9.10;0.80;;;;;;;;;;5069753;28;20148;-77
2022/01/31 10:59:01;;;;;;;5.88;0.70;;;;;;;;;;5069894;28;20500;-77
2022/01/31 11:01:28;;;;;;;5.13;1.20;;;;;;;;;;5071125;28;20533;-77
2022/01/31 11:03:55;;;;;;;4.03;0.82;;;;;;;;;;5069606;28;20129;-77
2022/01/31 11:06:23;;;;;;;2.72;0.70;;;;;;;;;;5069777;28;20886;-76
2022/01/31 11:08:49;;;;;;;4.57;0.60;;;;;;;;;;5069440;28;20363;-76
2022/01/31 11:11:15;;;;;;;3.97;0.63;;;;;;;;;;5070069;28;20268;-77
2022/01/31 11:13:41;;;;;;;4.57;0.80;;;;;;;;;;5069646;28;20048;-76
2022/01/31 11:16:07;;;;;;;4.13;0.60;;;;;;;;;;5052543;28;20114;-77
2022/01/31 11:18:34;;;;;;;6.22;1.33;;;;;;;;;;5069293;28;20048;-77
2022/01/31 11:21:08;;;;;;;4.80;0.95;;;;;;;;;;5068547;28;20055;-77
2022/01/31 11:23:39;;;;;;;7.55;0.90;;;;;;;;;;5070527;28;20044;-77
2022/01/31 11:26:07;;;;;;;7.40;1.20;;;;;;;;;;5069110;28;20500;-77
2022/01/31 11:28:34;;;;;;;7.80;1.25;;;;;;;;;;5052855;28;20522;-77
2022/01/31 11:31:02;;;;;;;6.63;1.45;;;;;;;;;;5068945;28;20460;-76
2022/01/31 11:33:28;;;;;;;9.38;1.33;;;;;;;;;;5069259;28;20049;-77
2022/01/31 11:35:54;;;;;;;9.88;1.67;;;;;;;;;;5068840;28;20040;-77
2022/01/31 11:38:21;;;;;;;13.30;1.80;;;;;;;;;;5069210;28;20139;-77
2022/01/31 11:40:47;;;;;;;14.45;2.08;;;;;;;;;;5068639;28;20522;-77
2022/01/31 11:43:15;;;;;;;19.23;3.10;;;;;;;;;;5052676;28;20040;-77
2022/01/31 11:45:41;;;;;;;31.30;3.20;;;;;;;;;;5068920;28;20052;-77
2022/01/31 11:48:12;;;;;;;29.20;4.45;;;;;;;;;;5068528;28;20115;-77
2022/01/31 11:50:43;;;;;;;34.50;3.60;;;;;;;;;;5069058;28;20519;-77
2022/01/31 11:53:09;;;;;;;32.63;4.22;;;;;;;;;;5068458;28;20044;-77
2022/01/31 11:55:38;;;;;;;39.67;4.25;;;;;;;;;;5052120;28;20123;-77
2022/01/31 11:58:08;;;;;;;33.35;3.75;;;;;;;;;;5068498;28;20395;-76
2022/01/31 12:00:39;;;;;;;34.10;3.90;;;;;;;;;;5069052;28;20542;-77
2022/01/31 12:03:07;;;;;;;24.55;3.58;;;;;;;;;;5068512;28;20127;-77
2022/01/31 12:05:36;;;;;;;21.83;2.80;;;;;;;;;;5067835;28;20087;-76
2022/01/31 12:08:06;;;;;;;30.42;3.65;;;;;;;;;;5069350;28;20512;-77
2022/01/31 12:10:35;;;;;;;24.75;3.65;;;;;;;;;;5051746;28;20090;-77
2022/01/31 12:15:45;;;;;;;20.23;3.15;;;;;;;;;;5068598;28;20518;-77
2022/01/31 12:18:44;;;;;;;19.70;2.67;;;;;;;;;;5068024;28;20048;-77
2022/01/31 12:23:59;;;;;;;19.65;3.13;;;;;;;;;;5068345;28;20488;-76
2022/01/31 12:26:37;;;;;;;15.35;2.40;;;;;;;;;;5068169;28;20080;-77
2022/01/31 12:29:08;;;;;;;20.88;2.42;;;;;;;;;;5067430;28;20094;-76
2022/01/31 12:31:34;;;;;;;20.35;3.17;;;;;;;;;;5069684;28;20040;-77
2022/01/31 12:34:01;;;;;;;16.80;2.45;;;;;;;;;;5051232;28;20166;-77
2022/01/31 12:36:51;;;;;;;16.77;2.30;;;;;;;;;;5068248;28;20043;-77
2022/01/31 12:39:36;;;;;;;14.73;2.63;;;;;;;;;;5062787;28;20511;-77
2022/01/31 12:42:41;;;;;;;15.77;2.90;;;;;;;;;;5067974;28;20425;-76
2022/01/31 12:45:07;;;;;;;12.60;1.60;;;;;;;;;;5067417;28;20496;-77
2022/01/31 12:47:33;;;;;;;20.80;1.83;;;;;;;;;;5067757;28;20051;-76
2022/01/31 12:50:20;;;;;;;13.27;1.70;;;;;;;;;;5068015;28;20234;-77
2022/01/31 12:52:46;;;;;;;12.65;1.73;;;;;;;;;;5069144;28;20051;-76
2022/01/31 12:55:13;;;;;;;12.50;1.90;;;;;;;;;;5067833;28;20041;-76
2022/01/31 12:57:52;;;;;;;15.50;2.17;;;;;;;;;;5068997;28;20044;-77
2022/01/31 13:00:40;;;;;;;18.27;2.33;;;;;;;;;;5067851;28;20076;-77
2022/01/31 13:03:06;;;;;;;18.77;2.42;;;;;;;;;;5067499;28;20079;-76
2022/01/31 13:05:33;;;;;;;20.67;2.40;;;;;;;;;;5067660;28;20128;-77
2022/01/31 13:07:59;;;;;;;21.52;3.42;;;;;;;;;;5050588;28;20032;-76
2022/01/31 13:10:26;;;;;;;24.38;2.97;;;;;;;;;;5050747;28;20063;-76
2022/01/31 13:13:00;;;;;;;20.88;3.30;;;;;;;;;;5067049;28;20044;-76
2022/01/31 13:15:26;;;;;;;25.50;3.58;;;;;;;;;;5067467;28;20051;-76
2022/01/31 13:18:02;;;;;;;26.02;3.78;;;;;;;;;;5071206;28;20480;-77
2022/01/31 13:20:28;;;;;;;25.48;4.00;;;;;;;;;;5072182;28;20119;-76
2022/01/31 13:22:54;;;;;;;31.05;4.30;;;;;;;;;;5054462;28;20090;-77
2022/01/31 13:25:21;;;;;;;28.65;4.00;;;;;;;;;;5073192;28;20047;-76
2022/01/31 13:27:47;;;;;;;23.15;3.13;;;;;;;;;;5071634;28;20048;-77
2022/01/31 13:30:18;;;;;;;26.27;3.50;;;;;;;;;;5071333;28;20615;-76
2022/01/31 13:32:44;;;;;;;24.92;3.47;;;;;;;;;;5071813;28;20118;-77
2022/01/31 13:35:13;;;;;;;26.08;3.50;;;;;;;;;;5071157;28;20367;-77
2022/01/31 13:38:02;;;;;;;28.00;3.50;;;;;;;;;;5071264;28;20185;-77
2022/01/31 13:40:29;;;;;;;24.23;4.07;;;;;;;;;;5071205;28;20048;-77
2022/01/31 13:42:58;;;;;;;21.70;3.08;;;;;;;;;;5072327;28;20044;-77
2022/01/31 13:45:32;;;;;;;28.63;3.70;;;;;;;;;;5071165;28;20071;-77
2022/01/31 13:48:06;;;;;;;24.30;3.40;;;;;;;;;;5054219;28;20032;-76
2022/01/31 13:50:39;;;;;;;21.75;3.10;;;;;;;;;;5071773;28;20560;-76
2022/01/31 13:53:09;;;;;;;23.13;4.18;;;;;;;;;;5071245;28;20354;-76
2022/01/31 13:55:47;;;;;;;26.15;3.95;;;;;;;;;;5054835;28;20412;-77
2022/01/31 13:58:21;;;;;;;22.92;3.53;;;;;;;;;;5070768;28;20044;-76
2022/01/31 14:00:47;;;;;;;25.52;3.53;;;;;;;;;;5070984;28;20040;-77
2022/01/31 14:03:15;;;;;;;22.42;3.40;;;;;;;;;;5070715;28;20047;-77
2022/01/31 14:06:07;;;;;;;27.05;3.78;;;;;;;;;;5070810;28;20052;-77
2022/01/31 14:08:39;;;;;;;39.90;4.15;;;;;;;;;;5069537;28;20615;-77
2022/01/31 14:11:08;;;;;;;21.05;3.75;;;;;;;;;;5070538;28;20416;-76
2022/01/31 14:13:35;;;;;;;24.70;3.38;;;;;;;;;;5071079;28;20362;-76
2022/01/31 14:16:02;;;;;;;26.33;3.80;;;;;;;;;;5070845;28;20454;-76
2022/01/31 14:18:30;;;;;;;28.92;3.65;;;;;;;;;;5070828;28;20044;-77
2022/01/31 14:20:56;;;;;;;15.07;2.45;;;;;;;;;;5054047;28;20527;-76
2022/01/31 14:23:23;;;;;;;23.80;3.50;;;;;;;;;;5053801;28;20040;-76
2022/01/31 14:25:50;;;;;;;12.10;2.55;;;;;;;;;;5070309;28;20084;-77
2022/01/31 14:28:18;;;;;;;18.13;2.40;;;;;;;;;;5070958;28;20388;-77
2022/01/31 14:30:48;;;;;;;11.93;2.47;;;;;;;;;;5070450;28;20504;-76
2022/01/31 14:33:14;;;;;;;20.45;3.00;;;;;;;;;;5053511;28;20064;-77
2022/01/31 14:35:40;;;;;;;15.73;2.40;;;;;;;;;;5070595;28;20492;-77
2022/01/31 14:38:18;;;;;;;20.90;2.53;;;;;;;;;;5070195;28;20098;-77
2022/01/31 14:49:04;;;;;;;17.35;2.00;;;;;;;;;;5071338;28;20076;-76
2022/01/31 14:51:31;;;;;;;11.68;2.58;;;;;;;;;;5070130;28;20090;-77
2022/01/31 14:53:58;;;;;;;11.95;1.70;;;;;;;;;;5069771;28;20047;-77
2022/01/31 14:56:25;;;;;;;11.35;1.70;;;;;;;;;;5070412;28;20082;-76
2022/01/31 14:58:51;;;;;;;13.57;1.58;;;;;;;;;;5069201;28;20041;-76
2022/01/31 15:01:18;;;;;;;14.52;1.98;;;;;;;;;;5069852;28;20079;-76
2022/01/31 15:03:51;;;;;;;18.10;2.13;;;;;;;;;;5069941;28;20080;-77
2022/01/31 15:06:20;;;;;;;9.27;2.00;;;;;;;;;;5053507;28;20491;-76
2022/01/31 15:08:47;;;;;;;7.65;1.05;;;;;;;;;;5070203;28;20377;-76
2022/01/31 15:11:13;;;;;;;10.30;1.50;;;;;;;;;;5070643;28;20090;-77
2022/01/31 15:13:41;;;;;;;14.13;1.42;;;;;;;;;;5070165;28;20071;-76
2022/01/31 15:16:18;;;;;;;7.93;1.13;;;;;;;;;;5069239;28;20046;-76
2022/01/31 15:18:44;;;;;;;9.40;1.25;;;;;;;;;;5069538;28;20095;-76
2022/01/31 15:21:14;;;;;;;6.40;0.80;;;;;;;;;;5036595;28;20043;-76
2022/01/31 15:23:42;;;;;;;5.55;0.93;;;;;;;;;;5069489;28;20078;-76